NCAR-RAP Real-Time Weather Data

Output produced by METARs form (06 May 2021  17:06 UTC)
found at http://weather.rap.ucar.edu/surface/
 
KFLL 061653Z 13010KT 10SM FEW025 FEW250 31/23 A3002 RMK AO2 SLP165 T03110228
KFLL 061553Z 11009KT 10SM FEW025 FEW250 31/24 A3004 RMK AO2 SLP171 T03110239
KFLL 061453Z 08004KT 10SM FEW025 FEW250 31/22 A3006 RMK AO2 SLP178 T03060217 50001
KFLL 061353Z VRB03KT 10SM FEW020 FEW100 FEW250 28/23 A3007 RMK AO2 SLP181 T02830228
KFLL 061253Z 19004KT 10SM FEW020 FEW050 FEW100 28/24 A3007 RMK AO2 SLP180 T02780244
KFLL 061153Z 23003KT 10SM FEW025 FEW050 27/24 A3006 RMK AO2 SLP178 T02670239 10267 20250 53014 $
KFLL 061053Z 00000KT 10SM FEW022 26/24 A3003 RMK AO2 SLP169 T02560239 $
KFLL 060953Z 20003KT 10SM FEW019 26/24 A3002 RMK AO2 SLP165 T02560239 $
KFLL 060853Z 00000KT 10SM FEW023 26/24 A3002 RMK AO2 SLP163 T02610239 55007 $
KFLL 060753Z 00000KT 10SM FEW019 FEW029 26/24 A3001 RMK AO2 SLP163 T02610239 $
KFLL 060653Z 00000KT 10SM FEW020 26/24 A3001 RMK AO2 SLP163 T02610244 $
KFLL 060553Z 00000KT 10SM CLR 27/24 A3004 RMK AO2 SLP171 T02670239 10283 20267 58009 $
KFLL 060453Z 18004KT 10SM CLR 27/24 A3006 RMK AO2 SLP177 T02670239 403170256 $
KFLL 060353Z 19004KT 10SM SCT250 27/24 A3007 RMK AO2 SLP181 T02670239 $
KFLL 060253Z 15006KT 10SM BKN250 27/23 A3006 RMK AO2 SLP179 T02720233 51015 $
KFLL 060153Z 15006KT 10SM BKN250 27/24 A3005 RMK AO2 SLP176 T02720239 $